Volans — WDE4708 — position and weather

sailwx.info

Track history (hours):
 
Tides and Currents Weather Stations Pressure Air Temp Water Temp Dewpoint Dewpoint Depression Visibility Wind Speed Wind Dir Waves Ship Positions

Volans

Owner: Constellation Maritime, manchester, MA. More information available from US FCC via Universal Licensing System and Coast Guard Vessel Documentation Center.

Last reported at 2015-Aug-31 18:20 UTC. Time now 2015-Sep-01 06:01 UTC.
Position N 41°31' W 070°50'.

Length 22 m; draft 3 m.

Type: Towing. MMSI: 367356820.

Date/timePositionNaut miles runAvg speedWind from/ knotsBaromVisibWave heightAir tempDewpointWater temp
2015-Aug-31 18:20N 41°31' W 070°50'5 6.8
2015-Aug-31 17:33N 41°29' W 070°57'7 7.0
2015-Aug-31 16:33N 41°26' W 071°06'8 8.3
2015-Aug-31 15:33N 41°26' W 071°17'4 4.3
2015-Aug-31 14:31N 41°29' W 071°20'1 0.8
2015-Aug-31 13:33N 41°29' W 071°19'9 7.0
2015-Aug-31 12:12N 41°38' W 071°16'5 7.7
2015-Aug-31 11:33N 41°42' W 071°11'0 0.0
2015-Aug-31 10:33N 41°42' W 071°11'0 0.0
2015-Aug-31 09:33N 41°42' W 071°11'0 0.0
2015-Aug-31 08:33N 41°42' W 071°11'0 0.0
2015-Aug-31 07:33N 41°42' W 071°11'0 0.0
2015-Aug-31 06:33N 41°42' W 071°11'0 0.0
2015-Aug-31 05:33N 41°42' W 071°11'0 0.0
2015-Aug-31 04:33N 41°42' W 071°11'0 0.0
2015-Aug-31 03:33N 41°42' W 071°11'0 0.0
2015-Aug-31 02:33N 41°42' W 071°11'0 0.0
2015-Aug-31 01:33N 41°42' W 071°11'0 0.0
2015-Aug-31 00:33N 41°42' W 071°11'0 0.0
2015-Aug-30 23:33N 41°42' W 071°11'0 0.0
2015-Aug-30 22:33N 41°42' W 071°11'0 0.0
2015-Aug-30 21:33N 41°42' W 071°11'0 0.0
2015-Aug-30 20:33N 41°42' W 071°11'0 0.0
2015-Aug-30 19:33N 41°42' W 071°11'0 0.0
2015-Aug-30 18:33N 41°42' W 071°11'0 0.0
2015-Aug-30 17:33N 41°42' W 071°11'0 0.0
2015-Aug-30 16:26N 41°42' W 071°11'0 0.0
2015-Aug-30 15:33N 41°42' W 071°11'0 0.0
2015-Aug-30 14:33N 41°42' W 071°11'0 0.0
2015-Aug-30 13:33N 41°42' W 071°11'0 0.0
2015-Aug-30 11:33N 41°42' W 071°11'0 0.0
2015-Aug-30 10:33N 41°42' W 071°11'0 0.0
2015-Aug-30 09:32N 41°42' W 071°11'0 0.0
2015-Aug-30 07:07N 41°42' W 071°11'0 0.0
2015-Aug-30 06:33N 41°42' W 071°11'0 0.0
2015-Aug-30 05:33N 41°42' W 071°11'0 0.0
2015-Aug-30 04:30N 41°42' W 071°11'0 0.0
2015-Aug-30 00:27N 41°42' W 071°11'0 0.0
2015-Aug-29 23:32N 41°42' W 071°11'0 0.0
2015-Aug-29 22:33N 41°42' W 071°11'0 0.0
2015-Aug-29 21:33N 41°42' W 071°11'0 0.0
2015-Aug-29 20:13N 41°42' W 071°11'0 0.0
2015-Aug-29 19:17N 41°42' W 071°11'0 0.0
2015-Aug-29 18:29N 41°42' W 071°11'0 0.0
2015-Aug-29 17:07N 41°42' W 071°11'0 0.0
2015-Aug-29 13:33N 41°42' W 071°11'0 0.0
2015-Aug-29 12:32N 41°42' W 071°11'0 0.0
2015-Aug-29 11:13N 41°42' W 071°11'0 0.0
2015-Aug-29 10:04N 41°42' W 071°11'0 0.0
2015-Aug-29 09:33N 41°42' W 071°11'0 0.0
2015-Aug-29 08:22N 41°42' W 071°11'0 0.0
2015-Aug-29 07:33N 41°42' W 071°11'0 0.0
2015-Aug-29 06:32N 41°42' W 071°11'0 0.0
2015-Aug-29 03:19N 41°42' W 071°11'0 0.0
2015-Aug-29 00:20N 41°42' W 071°11'0 0.0
2015-Aug-28 21:23N 41°42' W 071°11'0 0.0
2015-Aug-28 18:33N 41°42' W 071°11'0 0.0
2015-Aug-28 17:33N 41°42' W 071°11'0 0.0
2015-Aug-28 16:33N 41°42' W 071°11'0 0.0
2015-Aug-28 15:33N 41°42' W 071°11'0 0.0
2015-Aug-28 14:33N 41°42' W 071°11'0 0.0
2015-Aug-28 13:33N 41°42' W 071°11'0 0.0
2015-Aug-28 12:33N 41°42' W 071°11'0 0.0
2015-Aug-28 11:33N 41°42' W 071°11'0 0.0
2015-Aug-28 10:33N 41°42' W 071°11'0 0.0
2015-Aug-28 09:33N 41°42' W 071°11'0 0.0
2015-Aug-28 08:33N 41°42' W 071°11'0 0.0
2015-Aug-28 07:33N 41°42' W 071°11'0 0.0
2015-Aug-28 06:33N 41°42' W 071°11'0 0.0
2015-Aug-28 05:33N 41°42' W 071°11'0 0.0
2015-Aug-28 04:33N 41°42' W 071°11'0 0.0
2015-Aug-28 03:33N 41°42' W 071°11'0 0.0
2015-Aug-28 02:33N 41°42' W 071°11'0 0.0
2015-Aug-28 01:33N 41°42' W 071°11'0 0.0
2015-Aug-28 00:33N 41°42' W 071°11'0 0.0
2015-Aug-27 23:32N 41°42' W 071°11'0 0.0
2015-Aug-27 22:33N 41°42' W 071°11'0 0.0
2015-Aug-27 21:32N 41°42' W 071°11'0 0.0
2015-Aug-27 20:31N 41°42' W 071°11'0 0.0
2015-Aug-27 19:31N 41°42' W 071°11'0 0.0
2015-Aug-27 18:27N 41°42' W 071°11'0 0.0
2015-Aug-27 17:26N 41°42' W 071°11'0 0.0
2015-Aug-27 16:26N 41°42' W 071°11'0 0.0
2015-Aug-27 15:32N 41°42' W 071°11'0 0.0
2015-Aug-27 14:14N 41°42' W 071°11'0 0.0
2015-Aug-27 13:33N 41°42' W 071°11'0 0.0
2015-Aug-27 12:33N 41°42' W 071°11'0 0.0
2015-Aug-27 11:33N 41°42' W 071°11'0 0.0
2015-Aug-27 10:33N 41°42' W 071°11'0 0.0
2015-Aug-27 09:33N 41°42' W 071°11'0 0.0
2015-Aug-27 08:33N 41°42' W 071°11'0 0.0
2015-Aug-27 07:33N 41°42' W 071°11'0 0.0
2015-Aug-27 06:33N 41°42' W 071°11'0 0.0
2015-Aug-27 05:33N 41°42' W 071°11'0 0.0
2015-Aug-27 04:33N 41°42' W 071°11'0 0.0
2015-Aug-27 03:33N 41°42' W 071°11'0 0.0
2015-Aug-27 02:33N 41°42' W 071°11'0 0.0
2015-Aug-27 01:33N 41°42' W 071°11'0 0.0
2015-Aug-27 00:33N 41°42' W 071°11'0 0.0
2015-Aug-26 23:33N 41°42' W 071°11'0 0.0
2015-Aug-26 22:33N 41°42' W 071°11'0 0.0
2015-Aug-26 21:33N 41°42' W 071°11'0 0.0
2015-Aug-26 20:32N 41°42' W 071°11'0 0.0
2015-Aug-26 19:33N 41°42' W 071°11'0 0.0
2015-Aug-26 18:33N 41°42' W 071°11'0 0.0
2015-Aug-26 17:33N 41°42' W 071°11'0 0.0
2015-Aug-26 16:33N 41°42' W 071°11'0 0.0
2015-Aug-26 15:33N 41°42' W 071°11'0 0.0
2015-Aug-26 14:33N 41°42' W 071°11'0 0.0
2015-Aug-26 13:33N 41°42' W 071°11'0 0.0
2015-Aug-26 12:33N 41°42' W 071°11'0 0.0
2015-Aug-26 11:33N 41°42' W 071°11'0 0.0
2015-Aug-26 10:33N 41°42' W 071°11'0 0.0
2015-Aug-26 09:33N 41°42' W 071°11'0 0.0
2015-Aug-26 08:33N 41°42' W 071°11'0 0.0
2015-Aug-26 07:33N 41°42' W 071°11'0 0.0
2015-Aug-26 06:33N 41°42' W 071°11'0 0.0
2015-Aug-26 05:33N 41°42' W 071°11'0 0.0
2015-Aug-26 04:33N 41°42' W 071°11'0 0.0
2015-Aug-26 03:33N 41°42' W 071°11'0 0.0
2015-Aug-26 02:33N 41°42' W 071°11'0 0.0
2015-Aug-26 01:33N 41°42' W 071°11'0 0.0
2015-Aug-26 00:33N 41°42' W 071°11'0 0.0
2015-Aug-25 23:33N 41°42' W 071°11'0 0.0
2015-Aug-25 22:33N 41°42' W 071°11'0 0.0
2015-Aug-25 21:33N 41°42' W 071°11'0 0.0
2015-Aug-25 20:33N 41°42' W 071°11'0 0.0
2015-Aug-25 19:33N 41°42' W 071°11'0 0.0
2015-Aug-25 18:33N 41°42' W 071°11'0 0.0
2015-Aug-25 17:33N 41°42' W 071°11'5 5.0
2015-Aug-25 16:33N 41°38' W 071°16'8 7.6
2015-Aug-25 15:28N 41°31' W 071°21'0 0.3
2015-Aug-25 14:33N 41°31' W 071°21'7 4.6
2015-Aug-25 13:09N 41°37' W 071°17'610.0
2015-Aug-25 12:33N 41°41' W 071°12'1 1.1
2015-Aug-25 11:33N 41°42' W 071°11'0 0.0
2015-Aug-25 10:33N 41°42' W 071°11'0 0.0
2015-Aug-25 09:33N 41°42' W 071°11'0 0.0
2015-Aug-25 08:33N 41°42' W 071°11'0 0.0
2015-Aug-25 07:33N 41°42' W 071°11'0 0.0
2015-Aug-25 06:33N 41°42' W 071°11'0 0.0
2015-Aug-25 05:33N 41°42' W 071°11'0 0.0
2015-Aug-25 04:33N 41°42' W 071°11'0 0.0
2015-Aug-25 03:33N 41°42' W 071°11'0 0.0
2015-Aug-25 02:33N 41°42' W 071°11'0 0.0
2015-Aug-25 01:33N 41°42' W 071°11'0 0.0
2015-Aug-25 00:33N 41°42' W 071°11'0 0.0
2015-Aug-24 23:33N 41°42' W 071°11'0 0.0
2015-Aug-24 22:33N 41°42' W 071°11'0 0.0
2015-Aug-24 21:33N 41°42' W 071°11'0 0.0
2015-Aug-24 20:33N 41°42' W 071°11'0 0.0
2015-Aug-24 19:33N 41°42' W 071°11'0 0.0
2015-Aug-24 18:33N 41°42' W 071°11'0 0.0
2015-Aug-24 17:33N 41°42' W 071°11'0 0.0
2015-Aug-24 16:33N 41°42' W 071°11'0 0.0
2015-Aug-24 15:33N 41°42' W 071°11'0 0.0
2015-Aug-24 14:33N 41°42' W 071°11'0 0.0
2015-Aug-24 13:33N 41°42' W 071°11'0 0.0
2015-Aug-24 12:33N 41°42' W 071°11'0 0.0
2015-Aug-24 11:33N 41°42' W 071°11'0 0.0
2015-Aug-24 10:33N 41°42' W 071°11'0 0.0
2015-Aug-24 09:33N 41°42' W 071°11'0 0.0
2015-Aug-24 08:33N 41°42' W 071°11'0 0.0
2015-Aug-24 07:33N 41°42' W 071°11'0 0.0
2015-Aug-24 06:33N 41°42' W 071°11'0 0.0
2015-Aug-24 05:33N 41°42' W 071°11'0 0.0
2015-Aug-24 04:33N 41°42' W 071°11'0 0.0
2015-Aug-24 03:33N 41°42' W 071°11'0 0.0
2015-Aug-24 02:33N 41°42' W 071°11'0 0.0
2015-Aug-24 01:33N 41°42' W 071°11'0 0.0
2015-Aug-24 00:33N 41°42' W 071°11'0 0.0
2015-Aug-23 23:33N 41°42' W 071°11'0 0.0
2015-Aug-23 22:33N 41°42' W 071°11'0 0.0
2015-Aug-23 21:33N 41°42' W 071°11'0 0.0
2015-Aug-23 20:33N 41°42' W 071°11'0 0.0
2015-Aug-23 19:33N 41°42' W 071°11'0 0.0
2015-Aug-23 18:33N 41°42' W 071°11'0 0.2
2015-Aug-23 17:33N 41°42' W 071°11'0 0.2
2015-Aug-23 16:33N 41°42' W 071°11'0 0.0
2015-Aug-23 15:33N 41°42' W 071°11'0 0.0
2015-Aug-23 14:33N 41°42' W 071°11'0 0.0
2015-Aug-23 13:33N 41°42' W 071°11'0 0.0
2015-Aug-23 12:33N 41°42' W 071°11'0 0.0
2015-Aug-23 11:33N 41°42' W 071°11'0 0.0
2015-Aug-23 10:33N 41°42' W 071°11'0 0.0
2015-Aug-23 09:33N 41°42' W 071°11'0 0.0
2015-Aug-23 08:33N 41°42' W 071°11'0 0.0
2015-Aug-23 07:33N 41°42' W 071°11'0 0.0
2015-Aug-23 06:33N 41°42' W 071°11'0 0.0
2015-Aug-23 05:33N 41°42' W 071°11'0 0.0
2015-Aug-23 04:33N 41°42' W 071°11'0 0.0
2015-Aug-23 03:33N 41°42' W 071°11'0 0.0
2015-Aug-23 02:33N 41°42' W 071°11'0 0.0
2015-Aug-23 01:33N 41°42' W 071°11'0 0.0
2015-Aug-23 00:33N 41°42' W 071°11'0 0.0
2015-Aug-22 23:33N 41°42' W 071°11'0 0.0
2015-Aug-22 22:32N 41°42' W 071°11'0 0.0
2015-Aug-22 21:33N 41°42' W 071°11'0 0.0
2015-Aug-22 20:33N 41°42' W 071°11'0 0.0
2015-Aug-22 19:33N 41°42' W 071°11'0 0.0
2015-Aug-22 18:33N 41°42' W 071°11'0 0.0
2015-Aug-22 17:33N 41°42' W 071°11'0 0.0
2015-Aug-22 16:33N 41°42' W 071°11'0 0.0
2015-Aug-22 15:33N 41°42' W 071°11'0 0.0
2015-Aug-22 14:33N 41°42' W 071°11'0 0.0
2015-Aug-22 13:33N 41°42' W 071°11'0 0.0
2015-Aug-22 12:33N 41°42' W 071°11'0 0.0
2015-Aug-22 11:33N 41°42' W 071°11'0 0.0
2015-Aug-22 10:33N 41°42' W 071°11'0 0.0
2015-Aug-22 09:33N 41°42' W 071°11'0 0.0
2015-Aug-22 08:33N 41°42' W 071°11'0 0.0
2015-Aug-22 07:33N 41°42' W 071°11'0 0.0
2015-Aug-22 06:33N 41°42' W 071°11'0 0.0
2015-Aug-22 05:33N 41°42' W 071°11'0 0.0
2015-Aug-22 04:33N 41°42' W 071°11'0 0.0
2015-Aug-22 03:33N 41°42' W 071°11'0 0.0
2015-Aug-22 02:33N 41°42' W 071°11'0 0.0
2015-Aug-22 01:33N 41°42' W 071°11'0 0.0
2015-Aug-22 00:33N 41°42' W 071°11'0 0.0
2015-Aug-21 23:33N 41°42' W 071°11'0 0.0
2015-Aug-21 22:33N 41°42' W 071°11'0 0.0
2015-Aug-21 21:33N 41°42' W 071°11'0 0.0
2015-Aug-21 20:33N 41°42' W 071°11'0 0.0
2015-Aug-21 19:33N 41°42' W 071°11'0 0.0
2015-Aug-21 18:33N 41°42' W 071°11'  
Track history (hours):
 
Tides and Currents Weather Stations Pressure Air Temp Water Temp Dewpoint Dewpoint Depression Visibility Wind Speed Wind Dir Waves Ship Positions

Volans

Owner: Constellation Maritime, manchester, MA. More information available from US FCC via Universal Licensing System and Coast Guard Vessel Documentation Center.

Last reported at 2015-Aug-31 18:20 UTC. Time now 2015-Sep-01 06:01 UTC.
Position N 41°31' W 070°50'.

Length 22 m; draft 3 m.

Type: Towing. MMSI: 367356820.

Date/timePositionNaut miles runAvg speedWind from/ knotsBaromVisibWave heightAir tempDewpointWater temp
2015-Aug-31 18:20N 41°31' W 070°50'5 6.8
2015-Aug-31 17:33N 41°29' W 070°57'7 7.0
2015-Aug-31 16:33N 41°26' W 071°06'8 8.3
2015-Aug-31 15:33N 41°26' W 071°17'4 4.3
2015-Aug-31 14:31N 41°29' W 071°20'1 0.8
2015-Aug-31 13:33N 41°29' W 071°19'9 7.0
2015-Aug-31 12:12N 41°38' W 071°16'5 7.7
2015-Aug-31 11:33N 41°42' W 071°11'0 0.0
2015-Aug-31 10:33N 41°42' W 071°11'0 0.0
2015-Aug-31 09:33N 41°42' W 071°11'0 0.0
2015-Aug-31 08:33N 41°42' W 071°11'0 0.0
2015-Aug-31 07:33N 41°42' W 071°11'0 0.0
2015-Aug-31 06:33N 41°42' W 071°11'0 0.0
2015-Aug-31 05:33N 41°42' W 071°11'0 0.0
2015-Aug-31 04:33N 41°42' W 071°11'0 0.0
2015-Aug-31 03:33N 41°42' W 071°11'0 0.0
2015-Aug-31 02:33N 41°42' W 071°11'0 0.0
2015-Aug-31 01:33N 41°42' W 071°11'0 0.0
2015-Aug-31 00:33N 41°42' W 071°11'0 0.0
2015-Aug-30 23:33N 41°42' W 071°11'0 0.0
2015-Aug-30 22:33N 41°42' W 071°11'0 0.0
2015-Aug-30 21:33N 41°42' W 071°11'0 0.0
2015-Aug-30 20:33N 41°42' W 071°11'0 0.0
2015-Aug-30 19:33N 41°42' W 071°11'0 0.0
2015-Aug-30 18:33N 41°42' W 071°11'0 0.0
2015-Aug-30 17:33N 41°42' W 071°11'0 0.0
2015-Aug-30 16:26N 41°42' W 071°11'0 0.0
2015-Aug-30 15:33N 41°42' W 071°11'0 0.0
2015-Aug-30 14:33N 41°42' W 071°11'0 0.0
2015-Aug-30 13:33N 41°42' W 071°11'0 0.0
2015-Aug-30 11:33N 41°42' W 071°11'0 0.0
2015-Aug-30 10:33N 41°42' W 071°11'0 0.0
2015-Aug-30 09:32N 41°42' W 071°11'0 0.0
2015-Aug-30 07:07N 41°42' W 071°11'0 0.0
2015-Aug-30 06:33N 41°42' W 071°11'0 0.0
2015-Aug-30 05:33N 41°42' W 071°11'0 0.0
2015-Aug-30 04:30N 41°42' W 071°11'0 0.0
2015-Aug-30 00:27N 41°42' W 071°11'0 0.0
2015-Aug-29 23:32N 41°42' W 071°11'0 0.0
2015-Aug-29 22:33N 41°42' W 071°11'0 0.0
2015-Aug-29 21:33N 41°42' W 071°11'0 0.0
2015-Aug-29 20:13N 41°42' W 071°11'0 0.0
2015-Aug-29 19:17N 41°42' W 071°11'0 0.0
2015-Aug-29 18:29N 41°42' W 071°11'0 0.0
2015-Aug-29 17:07N 41°42' W 071°11'0 0.0
2015-Aug-29 13:33N 41°42' W 071°11'0 0.0
2015-Aug-29 12:32N 41°42' W 071°11'0 0.0
2015-Aug-29 11:13N 41°42' W 071°11'0 0.0
2015-Aug-29 10:04N 41°42' W 071°11'0 0.0
2015-Aug-29 09:33N 41°42' W 071°11'0 0.0
2015-Aug-29 08:22N 41°42' W 071°11'0 0.0
2015-Aug-29 07:33N 41°42' W 071°11'0 0.0
2015-Aug-29 06:32N 41°42' W 071°11'0 0.0
2015-Aug-29 03:19N 41°42' W 071°11'0 0.0
2015-Aug-29 00:20N 41°42' W 071°11'0 0.0
2015-Aug-28 21:23N 41°42' W 071°11'0 0.0
2015-Aug-28 18:33N 41°42' W 071°11'0 0.0
2015-Aug-28 17:33N 41°42' W 071°11'0 0.0
2015-Aug-28 16:33N 41°42' W 071°11'0 0.0
2015-Aug-28 15:33N 41°42' W 071°11'0 0.0
2015-Aug-28 14:33N 41°42' W 071°11'0 0.0
2015-Aug-28 13:33N 41°42' W 071°11'0 0.0
2015-Aug-28 12:33N 41°42' W 071°11'0 0.0
2015-Aug-28 11:33N 41°42' W 071°11'0 0.0
2015-Aug-28 10:33N 41°42' W 071°11'0 0.0
2015-Aug-28 09:33N 41°42' W 071°11'0 0.0
2015-Aug-28 08:33N 41°42' W 071°11'0 0.0
2015-Aug-28 07:33N 41°42' W 071°11'0 0.0
2015-Aug-28 06:33N 41°42' W 071°11'0 0.0
2015-Aug-28 05:33N 41°42' W 071°11'0 0.0
2015-Aug-28 04:33N 41°42' W 071°11'0 0.0
2015-Aug-28 03:33N 41°42' W 071°11'0 0.0
2015-Aug-28 02:33N 41°42' W 071°11'0 0.0
2015-Aug-28 01:33N 41°42' W 071°11'0 0.0
2015-Aug-28 00:33N 41°42' W 071°11'0 0.0
2015-Aug-27 23:32N 41°42' W 071°11'0 0.0
2015-Aug-27 22:33N 41°42' W 071°11'0 0.0
2015-Aug-27 21:32N 41°42' W 071°11'0 0.0
2015-Aug-27 20:31N 41°42' W 071°11'0 0.0
2015-Aug-27 19:31N 41°42' W 071°11'0 0.0
2015-Aug-27 18:27N 41°42' W 071°11'0 0.0
2015-Aug-27 17:26N 41°42' W 071°11'0 0.0
2015-Aug-27 16:26N 41°42' W 071°11'0 0.0
2015-Aug-27 15:32N 41°42' W 071°11'0 0.0
2015-Aug-27 14:14N 41°42' W 071°11'0 0.0
2015-Aug-27 13:33N 41°42' W 071°11'0 0.0
2015-Aug-27 12:33N 41°42' W 071°11'0 0.0
2015-Aug-27 11:33N 41°42' W 071°11'0 0.0
2015-Aug-27 10:33N 41°42' W 071°11'0 0.0
2015-Aug-27 09:33N 41°42' W 071°11'0 0.0
2015-Aug-27 08:33N 41°42' W 071°11'0 0.0
2015-Aug-27 07:33N 41°42' W 071°11'0 0.0
2015-Aug-27 06:33N 41°42' W 071°11'0 0.0
2015-Aug-27 05:33N 41°42' W 071°11'0 0.0
2015-Aug-27 04:33N 41°42' W 071°11'0 0.0
2015-Aug-27 03:33N 41°42' W 071°11'0 0.0
2015-Aug-27 02:33N 41°42' W 071°11'0 0.0
2015-Aug-27 01:33N 41°42' W 071°11'0 0.0
2015-Aug-27 00:33N 41°42' W 071°11'0 0.0
2015-Aug-26 23:33N 41°42' W 071°11'0 0.0
2015-Aug-26 22:33N 41°42' W 071°11'0 0.0
2015-Aug-26 21:33N 41°42' W 071°11'0 0.0
2015-Aug-26 20:32N 41°42' W 071°11'0 0.0
2015-Aug-26 19:33N 41°42' W 071°11'0 0.0
2015-Aug-26 18:33N 41°42' W 071°11'0 0.0
2015-Aug-26 17:33N 41°42' W 071°11'0 0.0
2015-Aug-26 16:33N 41°42' W 071°11'0 0.0
2015-Aug-26 15:33N 41°42' W 071°11'0 0.0
2015-Aug-26 14:33N 41°42' W 071°11'0 0.0
2015-Aug-26 13:33N 41°42' W 071°11'0 0.0
2015-Aug-26 12:33N 41°42' W 071°11'0 0.0
2015-Aug-26 11:33N 41°42' W 071°11'0 0.0
2015-Aug-26 10:33N 41°42' W 071°11'0 0.0
2015-Aug-26 09:33N 41°42' W 071°11'0 0.0
2015-Aug-26 08:33N 41°42' W 071°11'0 0.0
2015-Aug-26 07:33N 41°42' W 071°11'0 0.0
2015-Aug-26 06:33N 41°42' W 071°11'0 0.0
2015-Aug-26 05:33N 41°42' W 071°11'0 0.0
2015-Aug-26 04:33N 41°42' W 071°11'0 0.0
2015-Aug-26 03:33N 41°42' W 071°11'0 0.0
2015-Aug-26 02:33N 41°42' W 071°11'0 0.0
2015-Aug-26 01:33N 41°42' W 071°11'0 0.0
2015-Aug-26 00:33N 41°42' W 071°11'0 0.0
2015-Aug-25 23:33N 41°42' W 071°11'0 0.0
2015-Aug-25 22:33N 41°42' W 071°11'0 0.0
2015-Aug-25 21:33N 41°42' W 071°11'0 0.0
2015-Aug-25 20:33N 41°42' W 071°11'0 0.0
2015-Aug-25 19:33N 41°42' W 071°11'0 0.0
2015-Aug-25 18:33N 41°42' W 071°11'0 0.0
2015-Aug-25 17:33N 41°42' W 071°11'5 5.0
2015-Aug-25 16:33N 41°38' W 071°16'8 7.6
2015-Aug-25 15:28N 41°31' W 071°21'0 0.3
2015-Aug-25 14:33N 41°31' W 071°21'7 4.6
2015-Aug-25 13:09N 41°37' W 071°17'610.0
2015-Aug-25 12:33N 41°41' W 071°12'1 1.1
2015-Aug-25 11:33N 41°42' W 071°11'0 0.0
2015-Aug-25 10:33N 41°42' W 071°11'0 0.0
2015-Aug-25 09:33N 41°42' W 071°11'0 0.0
2015-Aug-25 08:33N 41°42' W 071°11'0 0.0
2015-Aug-25 07:33N 41°42' W 071°11'0 0.0
2015-Aug-25 06:33N 41°42' W 071°11'0 0.0
2015-Aug-25 05:33N 41°42' W 071°11'0 0.0
2015-Aug-25 04:33N 41°42' W 071°11'0 0.0
2015-Aug-25 03:33N 41°42' W 071°11'0 0.0
2015-Aug-25 02:33N 41°42' W 071°11'0 0.0
2015-Aug-25 01:33N 41°42' W 071°11'0 0.0
2015-Aug-25 00:33N 41°42' W 071°11'0 0.0
2015-Aug-24 23:33N 41°42' W 071°11'0 0.0
2015-Aug-24 22:33N 41°42' W 071°11'0 0.0
2015-Aug-24 21:33N 41°42' W 071°11'0 0.0
2015-Aug-24 20:33N 41°42' W 071°11'0 0.0
2015-Aug-24 19:33N 41°42' W 071°11'0 0.0
2015-Aug-24 18:33N 41°42' W 071°11'0 0.0
2015-Aug-24 17:33N 41°42' W 071°11'0 0.0
2015-Aug-24 16:33N 41°42' W 071°11'0 0.0
2015-Aug-24 15:33N 41°42' W 071°11'0 0.0
2015-Aug-24 14:33N 41°42' W 071°11'0 0.0
2015-Aug-24 13:33N 41°42' W 071°11'0 0.0
2015-Aug-24 12:33N 41°42' W 071°11'0 0.0
2015-Aug-24 11:33N 41°42' W 071°11'0 0.0
2015-Aug-24 10:33N 41°42' W 071°11'0 0.0
2015-Aug-24 09:33N 41°42' W 071°11'0 0.0
2015-Aug-24 08:33N 41°42' W 071°11'0 0.0
2015-Aug-24 07:33N 41°42' W 071°11'0 0.0
2015-Aug-24 06:33N 41°42' W 071°11'0 0.0
2015-Aug-24 05:33N 41°42' W 071°11'0 0.0
2015-Aug-24 04:33N 41°42' W 071°11'0 0.0
2015-Aug-24 03:33N 41°42' W 071°11'0 0.0
2015-Aug-24 02:33N 41°42' W 071°11'0 0.0
2015-Aug-24 01:33N 41°42' W 071°11'0 0.0
2015-Aug-24 00:33N 41°42' W 071°11'0 0.0
2015-Aug-23 23:33N 41°42' W 071°11'0 0.0
2015-Aug-23 22:33N 41°42' W 071°11'0 0.0
2015-Aug-23 21:33N 41°42' W 071°11'0 0.0
2015-Aug-23 20:33N 41°42' W 071°11'0 0.0
2015-Aug-23 19:33N 41°42' W 071°11'0 0.0
2015-Aug-23 18:33N 41°42' W 071°11'0 0.2
2015-Aug-23 17:33N 41°42' W 071°11'0 0.2
2015-Aug-23 16:33N 41°42' W 071°11'0 0.0
2015-Aug-23 15:33N 41°42' W 071°11'0 0.0
2015-Aug-23 14:33N 41°42' W 071°11'0 0.0
2015-Aug-23 13:33N 41°42' W 071°11'0 0.0
2015-Aug-23 12:33N 41°42' W 071°11'0 0.0
2015-Aug-23 11:33N 41°42' W 071°11'0 0.0
2015-Aug-23 10:33N 41°42' W 071°11'0 0.0
2015-Aug-23 09:33N 41°42' W 071°11'0 0.0
2015-Aug-23 08:33N 41°42' W 071°11'0 0.0
2015-Aug-23 07:33N 41°42' W 071°11'0 0.0
2015-Aug-23 06:33N 41°42' W 071°11'0 0.0
2015-Aug-23 05:33N 41°42' W 071°11'0 0.0
2015-Aug-23 04:33N 41°42' W 071°11'0 0.0
2015-Aug-23 03:33N 41°42' W 071°11'0 0.0
2015-Aug-23 02:33N 41°42' W 071°11'0 0.0
2015-Aug-23 01:33N 41°42' W 071°11'0 0.0
2015-Aug-23 00:33N 41°42' W 071°11'0 0.0
2015-Aug-22 23:33N 41°42' W 071°11'0 0.0
2015-Aug-22 22:32N 41°42' W 071°11'0 0.0
2015-Aug-22 21:33N 41°42' W 071°11'0 0.0
2015-Aug-22 20:33N 41°42' W 071°11'0 0.0
2015-Aug-22 19:33N 41°42' W 071°11'0 0.0
2015-Aug-22 18:33N 41°42' W 071°11'0 0.0
2015-Aug-22 17:33N 41°42' W 071°11'0 0.0
2015-Aug-22 16:33N 41°42' W 071°11'0 0.0
2015-Aug-22 15:33N 41°42' W 071°11'0 0.0
2015-Aug-22 14:33N 41°42' W 071°11'0 0.0
2015-Aug-22 13:33N 41°42' W 071°11'0 0.0
2015-Aug-22 12:33N 41°42' W 071°11'0 0.0
2015-Aug-22 11:33N 41°42' W 071°11'0 0.0
2015-Aug-22 10:33N 41°42' W 071°11'0 0.0
2015-Aug-22 09:33N 41°42' W 071°11'0 0.0
2015-Aug-22 08:33N 41°42' W 071°11'0 0.0
2015-Aug-22 07:33N 41°42' W 071°11'0 0.0
2015-Aug-22 06:33N 41°42' W 071°11'0 0.0
2015-Aug-22 05:33N 41°42' W 071°11'0 0.0
2015-Aug-22 04:33N 41°42' W 071°11'0 0.0
2015-Aug-22 03:33N 41°42' W 071°11'0 0.0
2015-Aug-22 02:33N 41°42' W 071°11'0 0.0
2015-Aug-22 01:33N 41°42' W 071°11'0 0.0
2015-Aug-22 00:33N 41°42' W 071°11'0 0.0
2015-Aug-21 23:33N 41°42' W 071°11'0 0.0
2015-Aug-21 22:33N 41°42' W 071°11'0 0.0
2015-Aug-21 21:33N 41°42' W 071°11'0 0.0
2015-Aug-21 20:33N 41°42' W 071°11'0 0.0
2015-Aug-21 19:33N 41°42' W 071°11'0 0.0
2015-Aug-21 18:33N 41°42' W 071°11'  

Dump ship's entire track history